Главная страница
METAR-TAF:

METAR-TAF

Аэропорты :

Балтимор, Мэриленд, США

широта: 39-20N, долгота: 076-25W, высота над уровнем моря: 7 м

Текущие метеонаблюдения

Эта сводка был подготовлена 59 минут назад, в 20:50 UTC
Штиль
Температура 31°C
Влажность 46%
Давление 1018 hPa
Видимость: 16.1 км
ясное небо

METAR: KMTN 172050Z 00000KT 10SM SKC 31/18 A3006

Время: 17:49 (21:49 UTC)

Прогноз

Эта сводка был подготовлена 4 часа и 2 минут назад, в 17:47 UTC
Прогноз действительный с 17-го 18 UTC до 18-го 18 UTC
Ветер 5 Узел от юго-восточный
Видимость: 10 км
Отдельные облака на высоте 10000 фута
С 18-го 1100 UTC
Ветер Узел от северный
Видимость: 10 км
Отдельные облака на высоте 5000 фута
С 18-го 1300 UTC
Ветер 3 Узел переменных направлений
Видимость: 10 км
Отдельные облака на высоте 20000 фута

TAF: KMTN 171747Z 1718/1818 14005KT P6SM SCT100 FM181100 00000KT P6SM SCT050 FM181300 VRB03KT P6SM SCT200

Метеонаблюдения и прогнозы для более 4000 аэропортов (сводки METAR и TAF).

Имеющиеся станции представлены на карте желтыми и красными точками.

Чтобы увидеть название станции, наведите на нее мышь.

Затем щелкните, чтобы увидеть метеонаблюдения и метеопрогнозы.

Управление картой: чтобы увеличить масштаб, щелкните зеленые кнопки с черным крестиком; чтобы уменьшить масштаб, щелкните зеленую кнопку с тире; для просмотра соседних карт щелкайте зеленые стрелки.


METAR-TAF: